sensor_id;sensor_type;location;lat;lon;timestamp;pressure;altitude;pressure_sealevel;temperature
81399;BMP280;70853;50.074;10.224;2023-08-21T00:01:21;99175.78;;;23.63
81399;BMP280;70853;50.074;10.224;2023-08-21T00:03:50;99176.22;;;23.32
81399;BMP280;70853;50.074;10.224;2023-08-21T00:06:17;99171.00;;;23.36
81399;BMP280;70853;50.074;10.224;2023-08-21T00:08:42;99176.16;;;23.05
81399;BMP280;70853;50.074;10.224;2023-08-21T00:11:09;99176.78;;;23.03
81399;BMP280;70853;50.074;10.224;2023-08-21T00:13:35;99170.47;;;23.26
81399;BMP280;70853;50.074;10.224;2023-08-21T00:16:01;99176.84;;;23.31
81399;BMP280;70853;50.074;10.224;2023-08-21T00:18:27;99174.75;;;23.43
81399;BMP280;70853;50.074;10.224;2023-08-21T00:20:53;99165.47;;;23.34
81399;BMP280;70853;50.074;10.224;2023-08-21T00:23:19;99175.31;;;23.28
81399;BMP280;70853;50.074;10.224;2023-08-21T00:25:49;99174.53;;;23.39
81399;BMP280;70853;50.074;10.224;2023-08-21T00:28:15;99171.81;;;23.39
81399;BMP280;70853;50.074;10.224;2023-08-21T00:30:41;99170.69;;;23.30
81399;BMP280;70853;50.074;10.224;2023-08-21T00:33:07;99177.44;;;23.29
81399;BMP280;70853;50.074;10.224;2023-08-21T00:35:32;99165.22;;;23.16
81399;BMP280;70853;50.074;10.224;2023-08-21T00:37:58;99164.00;;;23.20
81399;BMP280;70853;50.074;10.224;2023-08-21T00:40:27;99177.53;;;23.31
81399;BMP280;70853;50.074;10.224;2023-08-21T00:42:53;99166.81;;;23.22
81399;BMP280;70853;50.074;10.224;2023-08-21T00:45:19;99162.28;;;23.12
81399;BMP280;70853;50.074;10.224;2023-08-21T00:47:45;99173.19;;;23.26
81399;BMP280;70853;50.074;10.224;2023-08-21T00:50:12;99175.56;;;23.06
81399;BMP280;70853;50.074;10.224;2023-08-21T00:52:40;99167.03;;;23.12
81399;BMP280;70853;50.074;10.224;2023-08-21T00:55:07;99163.97;;;23.06
81399;BMP280;70853;50.074;10.224;2023-08-21T00:57:33;99178.50;;;23.10
81399;BMP280;70853;50.074;10.224;2023-08-21T01:00:00;99172.28;;;23.22
81399;BMP280;70853;50.074;10.224;2023-08-21T01:02:26;99173.28;;;23.14
81399;BMP280;70853;50.074;10.224;2023-08-21T01:04:52;99171.34;;;23.03
81399;BMP280;70853;50.074;10.224;2023-08-21T01:07:18;99171.78;;;23.11
81399;BMP280;70853;50.074;10.224;2023-08-21T01:09:54;99174.22;;;22.94
81399;BMP280;70853;50.074;10.224;2023-08-21T01:15:05;99175.25;;;22.75
81399;BMP280;70853;50.074;10.224;2023-08-21T01:17:34;99172.88;;;22.81
81399;BMP280;70853;50.074;10.224;2023-08-21T01:20:01;99171.69;;;22.59
81399;BMP280;70853;50.074;10.224;2023-08-21T01:22:38;99173.09;;;22.60
81399;BMP280;70853;50.074;10.224;2023-08-21T01:25:08;99165.09;;;22.76
81399;BMP280;70853;50.074;10.224;2023-08-21T01:27:39;99174.63;;;22.88
81399;BMP280;70853;50.074;10.224;2023-08-21T01:30:07;99173.44;;;22.91
81399;BMP280;70853;50.074;10.224;2023-08-21T01:35:10;99179.94;;;22.86
81399;BMP280;70853;50.074;10.224;2023-08-21T01:37:37;99146.09;;;22.64
81399;BMP280;70853;50.074;10.224;2023-08-21T01:40:04;99174.19;;;22.80
81399;BMP280;70853;50.074;10.224;2023-08-21T01:42:31;99178.38;;;22.70
81399;BMP280;70853;50.074;10.224;2023-08-21T01:44:57;99183.31;;;22.73
81399;BMP280;70853;50.074;10.224;2023-08-21T01:47:23;99185.38;;;22.86
81399;BMP280;70853;50.074;10.224;2023-08-21T01:49:49;99166.75;;;22.55
81399;BMP280;70853;50.074;10.224;2023-08-21T01:52:18;99186.22;;;22.63
81399;BMP280;70853;50.074;10.224;2023-08-21T01:54:45;99173.47;;;22.54
81399;BMP280;70853;50.074;10.224;2023-08-21T01:57:13;99168.16;;;22.45
81399;BMP280;70853;50.074;10.224;2023-08-21T01:59:39;99165.66;;;22.49
81399;BMP280;70853;50.074;10.224;2023-08-21T02:02:06;99168.25;;;22.58
81399;BMP280;70853;50.074;10.224;2023-08-21T02:04:32;99173.03;;;22.72
81399;BMP280;70853;50.074;10.224;2023-08-21T02:06:59;99160.03;;;22.70
81399;BMP280;70853;50.074;10.224;2023-08-21T02:09:28;99175.41;;;22.65
81399;BMP280;70853;50.074;10.224;2023-08-21T02:11:54;99171.69;;;22.59
81399;BMP280;70853;50.074;10.224;2023-08-21T02:14:20;99173.56;;;22.56
81399;BMP280;70853;50.074;10.224;2023-08-21T02:16:46;99175.00;;;22.57
81399;BMP280;70853;50.074;10.224;2023-08-21T02:19:12;99175.94;;;22.62
81399;BMP280;70853;50.074;10.224;2023-08-21T02:21:38;99170.97;;;22.58
81399;BMP280;70853;50.074;10.224;2023-08-21T02:24:04;99179.13;;;22.58
81399;BMP280;70853;50.074;10.224;2023-08-21T02:26:39;99179.22;;;22.24
81399;BMP280;70853;50.074;10.224;2023-08-21T02:29:06;99178.84;;;22.29
81399;BMP280;70853;50.074;10.224;2023-08-21T02:31:32;99175.50;;;22.42
81399;BMP280;70853;50.074;10.224;2023-08-21T02:33:58;99184.66;;;22.24
81399;BMP280;70853;50.074;10.224;2023-08-21T02:36:23;99172.25;;;22.32
81399;BMP280;70853;50.074;10.224;2023-08-21T02:38:50;99187.38;;;22.24
81399;BMP280;70853;50.074;10.224;2023-08-21T02:41:16;99183.63;;;22.29
81399;BMP280;70853;50.074;10.224;2023-08-21T02:43:44;99187.63;;;22.16
81399;BMP280;70853;50.074;10.224;2023-08-21T02:46:09;99187.91;;;22.08
81399;BMP280;70853;50.074;10.224;2023-08-21T02:48:36;99190.09;;;22.24
81399;BMP280;70853;50.074;10.224;2023-08-21T02:51:01;99189.03;;;22.29
81399;BMP280;70853;50.074;10.224;2023-08-21T02:53:28;99180.72;;;22.01
81399;BMP280;70853;50.074;10.224;2023-08-21T02:55:54;99180.09;;;21.91
81399;BMP280;70853;50.074;10.224;2023-08-21T02:58:20;99169.22;;;21.91
81399;BMP280;70853;50.074;10.224;2023-08-21T03:00:45;99178.81;;;21.92
81399;BMP280;70853;50.074;10.224;2023-08-21T03:03:11;99183.91;;;21.98
81399;BMP280;70853;50.074;10.224;2023-08-21T03:05:37;99182.78;;;22.14
81399;BMP280;70853;50.074;10.224;2023-08-21T03:08:03;99179.50;;;22.04
81399;BMP280;70853;50.074;10.224;2023-08-21T03:10:29;99186.47;;;22.07
81399;BMP280;70853;50.074;10.224;2023-08-21T03:13:00;99181.25;;;22.11
81399;BMP280;70853;50.074;10.224;2023-08-21T03:15:25;99177.03;;;22.08
81399;BMP280;70853;50.074;10.224;2023-08-21T03:17:52;99183.75;;;22.07
81399;BMP280;70853;50.074;10.224;2023-08-21T03:20:18;99174.38;;;22.10
81399;BMP280;70853;50.074;10.224;2023-08-21T03:22:50;99180.81;;;22.03
81399;BMP280;70853;50.074;10.224;2023-08-21T03:25:17;99176.31;;;21.96
81399;BMP280;70853;50.074;10.224;2023-08-21T03:27:46;99184.97;;;21.81
81399;BMP280;70853;50.074;10.224;2023-08-21T03:30:15;99184.25;;;21.92
81399;BMP280;70853;50.074;10.224;2023-08-21T03:32:41;99158.59;;;21.84
81399;BMP280;70853;50.074;10.224;2023-08-21T03:35:07;99171.13;;;21.89
81399;BMP280;70853;50.074;10.224;2023-08-21T03:37:34;99178.22;;;21.94
81399;BMP280;70853;50.074;10.224;2023-08-21T03:40:03;99168.03;;;21.83
81399;BMP280;70853;50.074;10.224;2023-08-21T03:42:30;99181.63;;;21.83
81399;BMP280;70853;50.074;10.224;2023-08-21T03:44:56;99184.97;;;21.70
81399;BMP280;70853;50.074;10.224;2023-08-21T03:47:23;99180.13;;;21.80
81399;BMP280;70853;50.074;10.224;2023-08-21T03:49:55;99178.00;;;21.78
81399;BMP280;70853;50.074;10.224;2023-08-21T03:52:24;99180.84;;;21.80
81399;BMP280;70853;50.074;10.224;2023-08-21T03:54:50;99184.34;;;21.83
81399;BMP280;70853;50.074;10.224;2023-08-21T03:57:16;99179.06;;;21.73
81399;BMP280;70853;50.074;10.224;2023-08-21T03:59:43;99179.06;;;21.61
81399;BMP280;70853;50.074;10.224;2023-08-21T04:02:09;99181.28;;;21.65
81399;BMP280;70853;50.074;10.224;2023-08-21T04:04:36;99184.25;;;21.69
81399;BMP280;70853;50.074;10.224;2023-08-21T04:07:02;99182.59;;;21.52
81399;BMP280;70853;50.074;10.224;2023-08-21T04:09:28;99187.91;;;21.50
81399;BMP280;70853;50.074;10.224;2023-08-21T04:11:54;99183.06;;;21.72
81399;BMP280;70853;50.074;10.224;2023-08-21T04:14:21;99186.47;;;21.84
81399;BMP280;70853;50.074;10.224;2023-08-21T04:16:46;99179.75;;;21.85
81399;BMP280;70853;50.074;10.224;2023-08-21T04:19:13;99191.22;;;21.72
81399;BMP280;70853;50.074;10.224;2023-08-21T04:21:39;99180.13;;;21.68
81399;BMP280;70853;50.074;10.224;2023-08-21T04:24:05;99184.25;;;21.69
81399;BMP280;70853;50.074;10.224;2023-08-21T04:26:31;99178.22;;;21.59
81399;BMP280;70853;50.074;10.224;2023-08-21T04:28:57;99177.28;;;21.66
81399;BMP280;70853;50.074;10.224;2023-08-21T04:31:24;99185.31;;;21.64
81399;BMP280;70853;50.074;10.224;2023-08-21T04:33:51;99192.16;;;21.65
81399;BMP280;70853;50.074;10.224;2023-08-21T04:36:17;99197.25;;;21.71
81399;BMP280;70853;50.074;10.224;2023-08-21T04:38:46;99192.88;;;21.77
81399;BMP280;70853;50.074;10.224;2023-08-21T04:41:17;99190.50;;;21.72
81399;BMP280;70853;50.074;10.224;2023-08-21T04:43:45;99194.66;;;21.73
81399;BMP280;70853;50.074;10.224;2023-08-21T04:46:11;99191.94;;;21.73
81399;BMP280;70853;50.074;10.224;2023-08-21T04:48:42;99184.84;;;21.68
81399;BMP280;70853;50.074;10.224;2023-08-21T04:51:07;99188.97;;;21.69
81399;BMP280;70853;50.074;10.224;2023-08-21T04:53:34;99196.66;;;21.72
81399;BMP280;70853;50.074;10.224;2023-08-21T04:56:02;99196.31;;;21.78
81399;BMP280;70853;50.074;10.224;2023-08-21T04:58:31;99194.31;;;21.78
81399;BMP280;70853;50.074;10.224;2023-08-21T05:00:57;99195.34;;;21.85
81399;BMP280;70853;50.074;10.224;2023-08-21T05:03:23;99185.69;;;21.82
81399;BMP280;70853;50.074;10.224;2023-08-21T05:05:53;99187.44;;;21.77
81399;BMP280;70853;50.074;10.224;2023-08-21T05:08:23;99200.06;;;21.96
81399;BMP280;70853;50.074;10.224;2023-08-21T05:10:59;99189.78;;;21.83
81399;BMP280;70853;50.074;10.224;2023-08-21T05:13:27;99208.13;;;21.82
81399;BMP280;70853;50.074;10.224;2023-08-21T05:15:54;99206.56;;;21.91
81399;BMP280;70853;50.074;10.224;2023-08-21T05:18:22;99205.88;;;21.90
81399;BMP280;70853;50.074;10.224;2023-08-21T05:20:48;99213.31;;;21.78
81399;BMP280;70853;50.074;10.224;2023-08-21T05:23:15;99210.84;;;21.82
81399;BMP280;70853;50.074;10.224;2023-08-21T05:25:42;99218.13;;;21.91
81399;BMP280;70853;50.074;10.224;2023-08-21T05:28:08;99209.44;;;21.81
81399;BMP280;70853;50.074;10.224;2023-08-21T05:30:36;99211.50;;;21.83
81399;BMP280;70853;50.074;10.224;2023-08-21T05:33:03;99209.16;;;21.89
81399;BMP280;70853;50.074;10.224;2023-08-21T05:35:34;99216.75;;;21.90
81399;BMP280;70853;50.074;10.224;2023-08-21T05:38:05;99216.13;;;21.92
81399;BMP280;70853;50.074;10.224;2023-08-21T05:40:31;99207.41;;;21.93
81399;BMP280;70853;50.074;10.224;2023-08-21T05:42:58;99219.81;;;21.96
81399;BMP280;70853;50.074;10.224;2023-08-21T05:45:23;99215.41;;;22.14
81399;BMP280;70853;50.074;10.224;2023-08-21T05:47:49;99211.84;;;22.24
81399;BMP280;70853;50.074;10.224;2023-08-21T05:50:15;99218.25;;;22.17
81399;BMP280;70853;50.074;10.224;2023-08-21T05:52:41;99213.38;;;22.27
81399;BMP280;70853;50.074;10.224;2023-08-21T05:55:07;99220.91;;;22.40
81399;BMP280;70853;50.074;10.224;2023-08-21T05:57:33;99221.66;;;22.29
81399;BMP280;70853;50.074;10.224;2023-08-21T05:59:59;99205.59;;;22.33
81399;BMP280;70853;50.074;10.224;2023-08-21T06:02:29;99215.94;;;22.48
81399;BMP280;70853;50.074;10.224;2023-08-21T06:04:54;99226.69;;;22.57
81399;BMP280;70853;50.074;10.224;2023-08-21T06:07:22;99201.03;;;22.49
81399;BMP280;70853;50.074;10.224;2023-08-21T06:09:48;99215.72;;;22.44
81399;BMP280;70853;50.074;10.224;2023-08-21T06:12:13;99223.91;;;22.69
81399;BMP280;70853;50.074;10.224;2023-08-21T06:14:41;99223.91;;;22.69
81399;BMP280;70853;50.074;10.224;2023-08-21T06:17:12;99228.84;;;22.73
81399;BMP280;70853;50.074;10.224;2023-08-21T06:19:37;99235.00;;;22.73
81399;BMP280;70853;50.074;10.224;2023-08-21T06:22:04;99236.66;;;22.78
81399;BMP280;70853;50.074;10.224;2023-08-21T06:24:30;99239.63;;;22.82
81399;BMP280;70853;50.074;10.224;2023-08-21T06:27:01;99231.59;;;22.73
81399;BMP280;70853;50.074;10.224;2023-08-21T06:29:27;99242.09;;;22.78
81399;BMP280;70853;50.074;10.224;2023-08-21T06:31:54;99240.59;;;23.00
81399;BMP280;70853;50.074;10.224;2023-08-21T06:34:21;99240.69;;;23.02
81399;BMP280;70853;50.074;10.224;2023-08-21T06:36:50;99246.47;;;23.08
81399;BMP280;70853;50.074;10.224;2023-08-21T06:39:19;99245.59;;;23.17
81399;BMP280;70853;50.074;10.224;2023-08-21T06:41:46;99249.09;;;23.20
81399;BMP280;70853;50.074;10.224;2023-08-21T06:44:17;99240.44;;;23.24
81399;BMP280;70853;50.074;10.224;2023-08-21T06:46:43;99253.78;;;23.31
81399;BMP280;70853;50.074;10.224;2023-08-21T06:49:09;99242.41;;;23.35
81399;BMP280;70853;50.074;10.224;2023-08-21T06:51:35;99250.28;;;23.42
81399;BMP280;70853;50.074;10.224;2023-08-21T06:54:01;99240.00;;;23.41
81399;BMP280;70853;50.074;10.224;2023-08-21T06:56:27;99242.06;;;23.67
81399;BMP280;70853;50.074;10.224;2023-08-21T06:58:52;99249.34;;;23.90
81399;BMP280;70853;50.074;10.224;2023-08-21T07:01:20;99249.03;;;24.11
81399;BMP280;70853;50.074;10.224;2023-08-21T07:03:46;99249.53;;;24.21
81399;BMP280;70853;50.074;10.224;2023-08-21T07:06:12;99241.00;;;24.29
81399;BMP280;70853;50.074;10.224;2023-08-21T07:08:38;99237.56;;;24.29
81399;BMP280;70853;50.074;10.224;2023-08-21T07:11:06;99246.38;;;24.41
81399;BMP280;70853;50.074;10.224;2023-08-21T07:13:33;99257.00;;;24.64
81399;BMP280;70853;50.074;10.224;2023-08-21T07:15:59;99256.53;;;24.83
81399;BMP280;70853;50.074;10.224;2023-08-21T07:18:29;99255.31;;;24.86
81399;BMP280;70853;50.074;10.224;2023-08-21T07:20:55;99247.78;;;25.00
81399;BMP280;70853;50.074;10.224;2023-08-21T07:23:21;99255.47;;;25.19
81399;BMP280;70853;50.074;10.224;2023-08-21T07:25:46;99254.59;;;25.30
81399;BMP280;70853;50.074;10.224;2023-08-21T07:28:12;99256.44;;;25.42
81399;BMP280;70853;50.074;10.224;2023-08-21T07:30:38;99257.06;;;25.56
81399;BMP280;70853;50.074;10.224;2023-08-21T07:33:05;99252.38;;;25.74
81399;BMP280;70853;50.074;10.224;2023-08-21T07:35:31;99247.22;;;25.82
81399;BMP280;70853;50.074;10.224;2023-08-21T07:37:57;99254.81;;;25.83
81399;BMP280;70853;50.074;10.224;2023-08-21T07:40:23;99249.75;;;25.94
81399;BMP280;70853;50.074;10.224;2023-08-21T07:42:49;99260.25;;;25.99
81399;BMP280;70853;50.074;10.224;2023-08-21T07:45:15;99258.94;;;26.00
81399;BMP280;70853;50.074;10.224;2023-08-21T07:47:41;99250.44;;;26.10
81399;BMP280;70853;50.074;10.224;2023-08-21T07:50:07;99252.38;;;26.07
81399;BMP280;70853;50.074;10.224;2023-08-21T07:52:34;99256.38;;;26.04
81399;BMP280;70853;50.074;10.224;2023-08-21T07:55:00;99259.53;;;26.14
81399;BMP280;70853;50.074;10.224;2023-08-21T07:57:29;99248.22;;;26.06
81399;BMP280;70853;50.074;10.224;2023-08-21T07:59:55;99257.56;;;26.17
81399;BMP280;70853;50.074;10.224;2023-08-21T08:02:22;99254.28;;;26.20
81399;BMP280;70853;50.074;10.224;2023-08-21T08:04:48;99247.09;;;26.29
81399;BMP280;70853;50.074;10.224;2023-08-21T08:07:14;99260.03;;;26.44
81399;BMP280;70853;50.074;10.224;2023-08-21T08:09:39;99254.06;;;26.50
81399;BMP280;70853;50.074;10.224;2023-08-21T08:12:05;99255.84;;;26.61
81399;BMP280;70853;50.074;10.224;2023-08-21T08:14:31;99253.13;;;26.61
81399;BMP280;70853;50.074;10.224;2023-08-21T08:16:57;99248.88;;;26.75
81399;BMP280;70853;50.074;10.224;2023-08-21T08:19:23;99254.38;;;26.75
81399;BMP280;70853;50.074;10.224;2023-08-21T08:21:49;99248.41;;;26.81
81399;BMP280;70853;50.074;10.224;2023-08-21T08:24:14;99252.09;;;26.87
81399;BMP280;70853;50.074;10.224;2023-08-21T08:26:40;99249.34;;;26.87
81399;BMP280;70853;50.074;10.224;2023-08-21T08:29:08;99251.06;;;26.96
81399;BMP280;70853;50.074;10.224;2023-08-21T08:31:33;99244.41;;;27.01
81399;BMP280;70853;50.074;10.224;2023-08-21T08:33:59;99250.56;;;27.02
81399;BMP280;70853;50.074;10.224;2023-08-21T08:36:25;99248.75;;;27.09
81399;BMP280;70853;50.074;10.224;2023-08-21T08:38:54;99245.31;;;27.08
81399;BMP280;70853;50.074;10.224;2023-08-21T08:41:42;99250.81;;;27.08
81399;BMP280;70853;50.074;10.224;2023-08-21T08:44:10;99249.22;;;27.21
81399;BMP280;70853;50.074;10.224;2023-08-21T08:46:38;99239.50;;;27.18
81399;BMP280;70853;50.074;10.224;2023-08-21T08:49:04;99254.25;;;27.28
81399;BMP280;70853;50.074;10.224;2023-08-21T08:51:33;99248.22;;;27.32
81399;BMP280;70853;50.074;10.224;2023-08-21T08:54:02;99247.59;;;27.33
81399;BMP280;70853;50.074;10.224;2023-08-21T08:56:29;99244.28;;;27.37
81399;BMP280;70853;50.074;10.224;2023-08-21T08:58:54;99254.84;;;27.44
81399;BMP280;70853;50.074;10.224;2023-08-21T09:01:20;99259.25;;;27.53
81399;BMP280;70853;50.074;10.224;2023-08-21T09:03:46;99255.66;;;27.49
81399;BMP280;70853;50.074;10.224;2023-08-21T09:06:15;99257.41;;;27.60
81399;BMP280;70853;50.074;10.224;2023-08-21T09:08:55;99251.72;;;27.54
81399;BMP280;70853;50.074;10.224;2023-08-21T09:11:21;99252.34;;;27.72
81399;BMP280;70853;50.074;10.224;2023-08-21T09:13:50;99249.88;;;27.80
81399;BMP280;70853;50.074;10.224;2023-08-21T09:16:21;99250.66;;;27.63
81399;BMP280;70853;50.074;10.224;2023-08-21T09:18:50;99240.88;;;27.78
81399;BMP280;70853;50.074;10.224;2023-08-21T09:21:20;99247.13;;;27.80
81399;BMP280;70853;50.074;10.224;2023-08-21T09:23:48;99243.03;;;27.81
81399;BMP280;70853;50.074;10.224;2023-08-21T09:26:19;99242.75;;;27.93
81399;BMP280;70853;50.074;10.224;2023-08-21T09:28:48;99237.59;;;27.83
81399;BMP280;70853;50.074;10.224;2023-08-21T09:31:14;99237.69;;;27.85
81399;BMP280;70853;50.074;10.224;2023-08-21T09:33:40;99239.13;;;28.08
81399;BMP280;70853;50.074;10.224;2023-08-21T09:36:09;99230.88;;;28.08
81399;BMP280;70853;50.074;10.224;2023-08-21T09:38:35;99228.19;;;27.88
81399;BMP280;70853;50.074;10.224;2023-08-21T09:41:01;99220.75;;;28.36
81399;BMP280;70853;50.074;10.224;2023-08-21T09:43:28;99220.38;;;28.46
81399;BMP280;70853;50.074;10.224;2023-08-21T09:45:55;99228.22;;;28.32
81399;BMP280;70853;50.074;10.224;2023-08-21T09:48:25;99221.66;;;28.43
81399;BMP280;70853;50.074;10.224;2023-08-21T09:50:55;99216.69;;;28.37
81399;BMP280;70853;50.074;10.224;2023-08-21T09:53:22;99224.19;;;28.35
81399;BMP280;70853;50.074;10.224;2023-08-21T09:55:54;99223.69;;;28.42
81399;BMP280;70853;50.074;10.224;2023-08-21T09:58:20;99215.78;;;28.52
81399;BMP280;70853;50.074;10.224;2023-08-21T10:00:50;99214.59;;;28.59
81399;BMP280;70853;50.074;10.224;2023-08-21T10:03:19;99220.69;;;28.79
81399;BMP280;70853;50.074;10.224;2023-08-21T10:05:47;99223.66;;;28.64
81399;BMP280;70853;50.074;10.224;2023-08-21T10:08:15;99215.06;;;28.52
81399;BMP280;70853;50.074;10.224;2023-08-21T10:10:41;99219.22;;;28.76
81399;BMP280;70853;50.074;10.224;2023-08-21T10:13:08;99218.41;;;28.72
81399;BMP280;70853;50.074;10.224;2023-08-21T10:15:41;99220.16;;;28.85
81399;BMP280;70853;50.074;10.224;2023-08-21T10:18:23;99212.38;;;28.77
81399;BMP280;70853;50.074;10.224;2023-08-21T10:20:50;99212.78;;;28.92
81399;BMP280;70853;50.074;10.224;2023-08-21T10:23:29;99216.63;;;29.06
81399;BMP280;70853;50.074;10.224;2023-08-21T10:26:00;99211.47;;;28.95
81399;BMP280;70853;50.074;10.224;2023-08-21T10:28:53;99206.44;;;28.85
81399;BMP280;70853;50.074;10.224;2023-08-21T10:33:56;99210.19;;;28.98
81399;BMP280;70853;50.074;10.224;2023-08-21T10:36:38;99201.06;;;29.15
81399;BMP280;70853;50.074;10.224;2023-08-21T10:39:05;99202.88;;;29.32
81399;BMP280;70853;50.074;10.224;2023-08-21T10:41:37;99204.16;;;29.29
81399;BMP280;70853;50.074;10.224;2023-08-21T10:44:05;99200.53;;;29.22
81399;BMP280;70853;50.074;10.224;2023-08-21T10:46:50;99194.63;;;29.06
81399;BMP280;70853;50.074;10.224;2023-08-21T10:49:15;99195.16;;;29.01
81399;BMP280;70853;50.074;10.224;2023-08-21T10:51:42;99209.53;;;29.25
81399;BMP280;70853;50.074;10.224;2023-08-21T10:54:15;99200.22;;;29.36
81399;BMP280;70853;50.074;10.224;2023-08-21T10:56:40;99204.94;;;29.33
81399;BMP280;70853;50.074;10.224;2023-08-21T10:59:06;99191.44;;;29.16
81399;BMP280;70853;50.074;10.224;2023-08-21T11:01:44;99192.44;;;29.56
81399;BMP280;70853;50.074;10.224;2023-08-21T11:04:11;99189.94;;;29.64
81399;BMP280;70853;50.074;10.224;2023-08-21T11:06:38;99184.91;;;29.84
81399;BMP280;70853;50.074;10.224;2023-08-21T11:09:03;99189.78;;;29.88
81399;BMP280;70853;50.074;10.224;2023-08-21T11:11:30;99195.41;;;29.36
81399;BMP280;70853;50.074;10.224;2023-08-21T11:13:56;99191.59;;;29.77
81399;BMP280;70853;50.074;10.224;2023-08-21T11:16:22;99183.03;;;29.93
81399;BMP280;70853;50.074;10.224;2023-08-21T11:18:50;99187.78;;;29.90
81399;BMP280;70853;50.074;10.224;2023-08-21T11:21:15;99185.19;;;29.98
81399;BMP280;70853;50.074;10.224;2023-08-21T11:23:44;99183.00;;;30.23
81399;BMP280;70853;50.074;10.224;2023-08-21T11:26:10;99180.84;;;30.19
81399;BMP280;70853;50.074;10.224;2023-08-21T11:28:37;99182.41;;;30.28
81399;BMP280;70853;50.074;10.224;2023-08-21T11:31:04;99185.00;;;30.20
81399;BMP280;70853;50.074;10.224;2023-08-21T11:33:31;99191.66;;;30.11
81399;BMP280;70853;50.074;10.224;2023-08-21T11:35:57;99178.75;;;30.18
81399;BMP280;70853;50.074;10.224;2023-08-21T11:38:26;99177.31;;;30.46
81399;BMP280;70853;50.074;10.224;2023-08-21T11:41:00;99183.88;;;30.67
81399;BMP280;70853;50.074;10.224;2023-08-21T11:46:03;99184.19;;;30.47
81399;BMP280;70853;50.074;10.224;2023-08-21T11:48:29;99187.34;;;30.67
81399;BMP280;70853;50.074;10.224;2023-08-21T11:50:56;99190.31;;;30.78
81399;BMP280;70853;50.074;10.224;2023-08-21T11:53:38;99187.44;;;30.72
81399;BMP280;70853;50.074;10.224;2023-08-21T11:56:27;99187.06;;;30.20
81399;BMP280;70853;50.074;10.224;2023-08-21T11:58:53;99184.13;;;30.43
81399;BMP280;70853;50.074;10.224;2023-08-21T12:01:19;99185.69;;;30.54
81399;BMP280;70853;50.074;10.224;2023-08-21T12:03:45;99192.69;;;30.59
81399;BMP280;70853;50.074;10.224;2023-08-21T12:06:12;99180.09;;;30.48
81399;BMP280;70853;50.074;10.224;2023-08-21T12:08:39;99189.19;;;30.23
81399;BMP280;70853;50.074;10.224;2023-08-21T12:11:06;99189.59;;;30.10
81399;BMP280;70853;50.074;10.224;2023-08-21T12:13:31;99184.19;;;30.47
81399;BMP280;70853;50.074;10.224;2023-08-21T12:15:57;99187.72;;;30.88
81399;BMP280;70853;50.074;10.224;2023-08-21T12:18:23;99180.75;;;31.22
81399;BMP280;70853;50.074;10.224;2023-08-21T12:20:49;99182.09;;;31.19
81399;BMP280;70853;50.074;10.224;2023-08-21T12:23:15;99175.38;;;31.30
81399;BMP280;70853;50.074;10.224;2023-08-21T12:25:40;99172.97;;;31.53
81399;BMP280;70853;50.074;10.224;2023-08-21T12:28:11;99176.56;;;31.59
81399;BMP280;70853;50.074;10.224;2023-08-21T12:30:37;99181.16;;;31.47
81399;BMP280;70853;50.074;10.224;2023-08-21T12:33:10;99154.22;;;31.43
81399;BMP280;70853;50.074;10.224;2023-08-21T12:35:35;99183.22;;;31.46
81399;BMP280;70853;50.074;10.224;2023-08-21T12:38:01;99183.72;;;31.32
81399;BMP280;70853;50.074;10.224;2023-08-21T12:40:31;99190.41;;;31.21
81399;BMP280;70853;50.074;10.224;2023-08-21T12:42:57;99182.16;;;31.23
81399;BMP280;70853;50.074;10.224;2023-08-21T12:45:23;99183.63;;;31.28
81399;BMP280;70853;50.074;10.224;2023-08-21T12:47:49;99178.91;;;31.79
81399;BMP280;70853;50.074;10.224;2023-08-21T12:50:15;99177.78;;;31.98
81399;BMP280;70853;50.074;10.224;2023-08-21T12:52:41;99175.84;;;31.59
81399;BMP280;70853;50.074;10.224;2023-08-21T12:55:08;99180.25;;;31.32
81399;BMP280;70853;50.074;10.224;2023-08-21T12:57:34;99173.34;;;31.77
81399;BMP280;70853;50.074;10.224;2023-08-21T13:00:00;99167.59;;;31.63
81399;BMP280;70853;50.074;10.224;2023-08-21T13:02:26;99170.69;;;31.39
81399;BMP280;70853;50.074;10.224;2023-08-21T13:04:53;99180.22;;;30.92
81399;BMP280;70853;50.074;10.224;2023-08-21T13:07:18;99176.66;;;31.23
81399;BMP280;70853;50.074;10.224;2023-08-21T13:09:44;99168.66;;;31.42
81399;BMP280;70853;50.074;10.224;2023-08-21T13:12:10;99171.72;;;31.18
81399;BMP280;70853;50.074;10.224;2023-08-21T13:14:36;99163.31;;;31.10
81399;BMP280;70853;50.074;10.224;2023-08-21T13:17:02;99158.47;;;31.50
81399;BMP280;70853;50.074;10.224;2023-08-21T13:19:28;99158.16;;;30.90
81399;BMP280;70853;50.074;10.224;2023-08-21T13:21:54;99155.50;;;30.96
81399;BMP280;70853;50.074;10.224;2023-08-21T13:24:20;99148.00;;;31.01
81399;BMP280;70853;50.074;10.224;2023-08-21T13:26:47;99156.72;;;30.87
81399;BMP280;70853;50.074;10.224;2023-08-21T13:29:13;99150.69;;;30.97
81399;BMP280;70853;50.074;10.224;2023-08-21T13:31:39;99156.50;;;31.15
81399;BMP280;70853;50.074;10.224;2023-08-21T13:34:05;99152.16;;;31.02
81399;BMP280;70853;50.074;10.224;2023-08-21T13:36:31;99149.88;;;31.30
81399;BMP280;70853;50.074;10.224;2023-08-21T13:38:56;99137.19;;;31.57
81399;BMP280;70853;50.074;10.224;2023-08-21T13:41:22;99130.78;;;31.44
81399;BMP280;70853;50.074;10.224;2023-08-21T13:43:50;99141.19;;;31.06
81399;BMP280;70853;50.074;10.224;2023-08-21T13:46:16;99130.41;;;30.80
81399;BMP280;70853;50.074;10.224;2023-08-21T13:48:41;99130.19;;;31.08
81399;BMP280;70853;50.074;10.224;2023-08-21T13:51:08;99125.84;;;31.38
81399;BMP280;70853;50.074;10.224;2023-08-21T13:53:37;99125.59;;;31.68
81399;BMP280;70853;50.074;10.224;2023-08-21T13:56:03;99115.38;;;31.29
81399;BMP280;70853;50.074;10.224;2023-08-21T13:58:32;99127.63;;;31.66
81399;BMP280;70853;50.074;10.224;2023-08-21T14:00:58;99110.06;;;32.53
81399;BMP280;70853;50.074;10.224;2023-08-21T14:03:27;99116.69;;;32.28
81399;BMP280;70853;50.074;10.224;2023-08-21T14:05:52;99107.25;;;31.89
81399;BMP280;70853;50.074;10.224;2023-08-21T14:08:18;99116.41;;;32.01